Vingaren — OZ2131 — position and weather

sailwx.info

Track history (hours):
 
Tides and Currents Weather Stations Pressure Air Temp Water Temp Dewpoint Dewpoint Depression Visibility Wind Speed Wind Dir Waves Ship Positions

Vingaren

Last reported at 2015-Mar-27 13:12 UTC. Time now 2015-Mar-28 17:48 UTC.
Position N 59°37' E 023°11'.

Length 89 m; draft 6.3 m.

Type: Cargo ship. MMSI: 231844000.

Date/timePositionNaut miles runAvg speedWind from/ knotsBaromVisibWave heightAir tempDewpointWater temp
2015-Mar-27 13:12N 59°37' E 023°11'710.1
2015-Mar-27 12:32N 59°38' E 023°24'1010.1
2015-Mar-27 11:34N 59°41' E 023°43'29 9.4
2015-Mar-27 08:26N 59°48' E 024°39'45 9.1
2015-Mar-27 03:30N 59°58' E 026°06'9 9.0
2015-Mar-27 02:33N 60°00' E 026°23'9 8.9
2015-Mar-27 01:34N 60°01' E 026°40'10 9.5
2015-Mar-27 00:32N 59°60' E 026°59'  
2015-Mar-24 02:29N 59°59' E 026°41'1310.6
2015-Mar-24 01:16N 59°56' E 026°16'5110.6
2015-Mar-23 20:29N 59°44' E 024°37'2110.7
2015-Mar-23 18:32N 59°39' E 023°57'2610.9
2015-Mar-23 16:10N 59°30' E 023°09'34010.4
2015-Mar-22 07:33N 55°38' E 015°26'10 9.8
2015-Mar-22 06:33N 55°34' E 015°11'8 8.4
2015-Mar-22 05:33N 55°30' E 014°58'8 8.3
2015-Mar-22 04:33N 55°26' E 014°45'8 7.9
2015-Mar-22 03:33N 55°21' E 014°34'8 7.9
2015-Mar-22 02:33N 55°15' E 014°25'7 7.3
2015-Mar-22 01:33N 55°11' E 014°14'29 6.8
2015-Mar-21 21:17N 55°12' E 013°23'5 6.6
2015-Mar-21 20:33N 55°13' E 013°15'7 6.8
2015-Mar-21 19:28N 55°14' E 013°02'7 7.4
2015-Mar-21 18:33N 55°15' E 012°51'8 7.7
2015-Mar-21 17:33N 55°18' E 012°38'9 9.1
2015-Mar-21 16:33N 55°27' E 012°41'9 8.6
2015-Mar-21 15:33N 55°36' E 012°42'7 7.1
2015-Mar-21 14:33N 55°43' E 012°41'8 8.2
2015-Mar-21 13:33N 55°51' E 012°41'7 7.3
2015-Mar-21 12:33N 55°58' E 012°44'0 0.2
2015-Mar-21 11:28N 55°58' E 012°44'0 0.0
2015-Mar-21 10:31N 55°58' E 012°44'0 0.0
2015-Mar-21 09:31N 55°58' E 012°44'0 0.0
2015-Mar-21 08:31N 55°58' E 012°44'0 0.1
2015-Mar-21 07:31N 55°58' E 012°44'0 0.0
2015-Mar-21 06:28N 55°58' E 012°44'0 0.0
2015-Mar-21 05:31N 55°58' E 012°44'0 0.0
2015-Mar-21 04:31N 55°58' E 012°44'0 0.0
2015-Mar-21 03:31N 55°58' E 012°44'0 0.0
2015-Mar-21 02:31N 55°58' E 012°44'0 0.0
2015-Mar-21 01:31N 55°58' E 012°44'0 0.0
2015-Mar-21 00:31N 55°58' E 012°44'0 0.0
2015-Mar-20 23:28N 55°58' E 012°44'0 0.0
2015-Mar-20 22:31N 55°58' E 012°44'0 0.0
2015-Mar-20 21:31N 55°58' E 012°44'0 0.0
2015-Mar-20 20:31N 55°58' E 012°44'0 0.1
2015-Mar-20 19:33N 55°58' E 012°44'7 7.2
2015-Mar-20 18:33N 56°04' E 012°37'8 8.2
2015-Mar-20 17:33N 56°09' E 012°24'9 9.5
2015-Mar-20 16:33N 56°09' E 012°07'  
Track history (hours):
 
Tides and Currents Weather Stations Pressure Air Temp Water Temp Dewpoint Dewpoint Depression Visibility Wind Speed Wind Dir Waves Ship Positions

Vingaren

Last reported at 2015-Mar-27 13:12 UTC. Time now 2015-Mar-28 17:48 UTC.
Position N 59°37' E 023°11'.

Length 89 m; draft 6.3 m.

Type: Cargo ship. MMSI: 231844000.

Date/timePositionNaut miles runAvg speedWind from/ knotsBaromVisibWave heightAir tempDewpointWater temp
2015-Mar-27 13:12N 59°37' E 023°11'710.1
2015-Mar-27 12:32N 59°38' E 023°24'1010.1
2015-Mar-27 11:34N 59°41' E 023°43'29 9.4
2015-Mar-27 08:26N 59°48' E 024°39'45 9.1
2015-Mar-27 03:30N 59°58' E 026°06'9 9.0
2015-Mar-27 02:33N 60°00' E 026°23'9 8.9
2015-Mar-27 01:34N 60°01' E 026°40'10 9.5
2015-Mar-27 00:32N 59°60' E 026°59'  
2015-Mar-24 02:29N 59°59' E 026°41'1310.6
2015-Mar-24 01:16N 59°56' E 026°16'5110.6
2015-Mar-23 20:29N 59°44' E 024°37'2110.7
2015-Mar-23 18:32N 59°39' E 023°57'2610.9
2015-Mar-23 16:10N 59°30' E 023°09'34010.4
2015-Mar-22 07:33N 55°38' E 015°26'10 9.8
2015-Mar-22 06:33N 55°34' E 015°11'8 8.4
2015-Mar-22 05:33N 55°30' E 014°58'8 8.3
2015-Mar-22 04:33N 55°26' E 014°45'8 7.9
2015-Mar-22 03:33N 55°21' E 014°34'8 7.9
2015-Mar-22 02:33N 55°15' E 014°25'7 7.3
2015-Mar-22 01:33N 55°11' E 014°14'29 6.8
2015-Mar-21 21:17N 55°12' E 013°23'5 6.6
2015-Mar-21 20:33N 55°13' E 013°15'7 6.8
2015-Mar-21 19:28N 55°14' E 013°02'7 7.4
2015-Mar-21 18:33N 55°15' E 012°51'8 7.7
2015-Mar-21 17:33N 55°18' E 012°38'9 9.1
2015-Mar-21 16:33N 55°27' E 012°41'9 8.6
2015-Mar-21 15:33N 55°36' E 012°42'7 7.1
2015-Mar-21 14:33N 55°43' E 012°41'8 8.2
2015-Mar-21 13:33N 55°51' E 012°41'7 7.3
2015-Mar-21 12:33N 55°58' E 012°44'0 0.2
2015-Mar-21 11:28N 55°58' E 012°44'0 0.0
2015-Mar-21 10:31N 55°58' E 012°44'0 0.0
2015-Mar-21 09:31N 55°58' E 012°44'0 0.0
2015-Mar-21 08:31N 55°58' E 012°44'0 0.1
2015-Mar-21 07:31N 55°58' E 012°44'0 0.0
2015-Mar-21 06:28N 55°58' E 012°44'0 0.0
2015-Mar-21 05:31N 55°58' E 012°44'0 0.0
2015-Mar-21 04:31N 55°58' E 012°44'0 0.0
2015-Mar-21 03:31N 55°58' E 012°44'0 0.0
2015-Mar-21 02:31N 55°58' E 012°44'0 0.0
2015-Mar-21 01:31N 55°58' E 012°44'0 0.0
2015-Mar-21 00:31N 55°58' E 012°44'0 0.0
2015-Mar-20 23:28N 55°58' E 012°44'0 0.0
2015-Mar-20 22:31N 55°58' E 012°44'0 0.0
2015-Mar-20 21:31N 55°58' E 012°44'0 0.0
2015-Mar-20 20:31N 55°58' E 012°44'0 0.1
2015-Mar-20 19:33N 55°58' E 012°44'7 7.2
2015-Mar-20 18:33N 56°04' E 012°37'8 8.2
2015-Mar-20 17:33N 56°09' E 012°24'9 9.5
2015-Mar-20 16:33N 56°09' E 012°07'  

Dump ship's entire track history